sensor_id;sensor_type;location;lat;lon;timestamp;P1;durP1;ratioP1;P2;durP2;ratioP2
77191;SDS011;66172;48.526;8.078;2023-10-19T00:01:07;11.82;;;4.03;;
77191;SDS011;66172;48.526;8.078;2023-10-19T00:03:37;7.70;;;4.00;;
77191;SDS011;66172;48.526;8.078;2023-10-19T00:06:03;10.25;;;4.38;;
77191;SDS011;66172;48.526;8.078;2023-10-19T00:08:30;12.40;;;3.80;;
77191;SDS011;66172;48.526;8.078;2023-10-19T00:11:23;10.20;;;3.85;;
77191;SDS011;66172;48.526;8.078;2023-10-19T00:13:51;11.57;;;3.67;;
77191;SDS011;66172;48.526;8.078;2023-10-19T00:16:20;8.93;;;3.70;;
77191;SDS011;66172;48.526;8.078;2023-10-19T00:18:51;10.50;;;3.40;;
77191;SDS011;66172;48.526;8.078;2023-10-19T00:21:18;12.63;;;3.67;;
77191;SDS011;66172;48.526;8.078;2023-10-19T00:23:51;11.48;;;3.72;;
77191;SDS011;66172;48.526;8.078;2023-10-19T00:26:22;8.82;;;3.20;;
77191;SDS011;66172;48.526;8.078;2023-10-19T00:28:51;8.30;;;2.90;;
77191;SDS011;66172;48.526;8.078;2023-10-19T00:31:21;13.32;;;3.10;;
77191;SDS011;66172;48.526;8.078;2023-10-19T00:33:48;8.23;;;3.05;;
77191;SDS011;66172;48.526;8.078;2023-10-19T00:36:17;8.38;;;3.15;;
77191;SDS011;66172;48.526;8.078;2023-10-19T00:38:46;12.63;;;6.32;;
77191;SDS011;66172;48.526;8.078;2023-10-19T00:41:17;15.60;;;6.90;;
77191;SDS011;66172;48.526;8.078;2023-10-19T00:43:48;12.10;;;6.55;;
77191;SDS011;66172;48.526;8.078;2023-10-19T00:46:25;14.32;;;7.10;;
77191;SDS011;66172;48.526;8.078;2023-10-19T00:49:01;14.65;;;6.65;;
77191;SDS011;66172;48.526;8.078;2023-10-19T00:51:37;9.68;;;3.75;;
77191;SDS011;66172;48.526;8.078;2023-10-19T00:54:09;9.50;;;3.37;;
77191;SDS011;66172;48.526;8.078;2023-10-19T00:56:41;8.82;;;3.55;;
77191;SDS011;66172;48.526;8.078;2023-10-19T00:59:14;11.15;;;3.30;;
77191;SDS011;66172;48.526;8.078;2023-10-19T01:01:52;12.25;;;3.10;;
77191;SDS011;66172;48.526;8.078;2023-10-19T01:04:42;10.10;;;3.20;;
77191;SDS011;66172;48.526;8.078;2023-10-19T01:07:10;8.80;;;2.50;;
77191;SDS011;66172;48.526;8.078;2023-10-19T01:09:47;8.45;;;2.75;;
77191;SDS011;66172;48.526;8.078;2023-10-19T01:12:16;8.20;;;2.58;;
77191;SDS011;66172;48.526;8.078;2023-10-19T01:15:09;16.27;;;7.95;;
77191;SDS011;66172;48.526;8.078;2023-10-19T01:17:40;20.75;;;10.85;;
77191;SDS011;66172;48.526;8.078;2023-10-19T01:20:12;19.43;;;10.67;;
77191;SDS011;66172;48.526;8.078;2023-10-19T01:22:49;17.88;;;9.38;;
77191;SDS011;66172;48.526;8.078;2023-10-19T01:25:19;16.23;;;9.48;;
77191;SDS011;66172;48.526;8.078;2023-10-19T01:27:59;13.85;;;8.63;;
77191;SDS011;66172;48.526;8.078;2023-10-19T01:30:26;17.13;;;9.05;;
77191;SDS011;66172;48.526;8.078;2023-10-19T01:32:52;14.27;;;8.40;;
77191;SDS011;66172;48.526;8.078;2023-10-19T01:35:18;18.42;;;9.88;;
77191;SDS011;66172;48.526;8.078;2023-10-19T01:37:44;17.17;;;8.80;;
77191;SDS011;66172;48.526;8.078;2023-10-19T01:40:10;15.75;;;9.50;;
77191;SDS011;66172;48.526;8.078;2023-10-19T01:42:40;15.47;;;9.20;;
77191;SDS011;66172;48.526;8.078;2023-10-19T01:45:07;18.13;;;8.48;;
77191;SDS011;66172;48.526;8.078;2023-10-19T01:47:37;11.95;;;6.55;;
77191;SDS011;66172;48.526;8.078;2023-10-19T01:50:03;13.02;;;5.55;;
77191;SDS011;66172;48.526;8.078;2023-10-19T01:52:31;15.63;;;7.35;;
77191;SDS011;66172;48.526;8.078;2023-10-19T01:54:57;12.07;;;4.57;;
77191;SDS011;66172;48.526;8.078;2023-10-19T01:57:33;11.43;;;4.32;;
77191;SDS011;66172;48.526;8.078;2023-10-19T02:00:00;9.00;;;3.95;;
77191;SDS011;66172;48.526;8.078;2023-10-19T02:02:35;9.60;;;4.03;;
77191;SDS011;66172;48.526;8.078;2023-10-19T02:05:01;9.43;;;3.40;;
77191;SDS011;66172;48.526;8.078;2023-10-19T02:07:34;9.80;;;3.72;;
77191;SDS011;66172;48.526;8.078;2023-10-19T02:10:00;9.25;;;3.15;;
77191;SDS011;66172;48.526;8.078;2023-10-19T02:12:26;9.07;;;4.80;;
77191;SDS011;66172;48.526;8.078;2023-10-19T02:14:52;9.25;;;3.30;;
77191;SDS011;66172;48.526;8.078;2023-10-19T02:17:18;11.00;;;3.00;;
77191;SDS011;66172;48.526;8.078;2023-10-19T02:19:44;9.02;;;3.22;;
77191;SDS011;66172;48.526;8.078;2023-10-19T02:22:10;9.00;;;3.15;;
77191;SDS011;66172;48.526;8.078;2023-10-19T02:24:37;8.07;;;2.67;;
77191;SDS011;66172;48.526;8.078;2023-10-19T02:27:04;8.67;;;2.80;;
77191;SDS011;66172;48.526;8.078;2023-10-19T02:29:30;8.05;;;2.70;;
77191;SDS011;66172;48.526;8.078;2023-10-19T02:31:57;8.68;;;2.95;;
77191;SDS011;66172;48.526;8.078;2023-10-19T02:34:29;11.13;;;3.22;;
77191;SDS011;66172;48.526;8.078;2023-10-19T02:36:55;8.33;;;2.80;;
77191;SDS011;66172;48.526;8.078;2023-10-19T02:39:20;7.82;;;3.20;;
77191;SDS011;66172;48.526;8.078;2023-10-19T02:41:51;8.98;;;3.03;;
77191;SDS011;66172;48.526;8.078;2023-10-19T02:44:17;8.82;;;2.97;;
77191;SDS011;66172;48.526;8.078;2023-10-19T02:46:45;13.27;;;2.80;;
77191;SDS011;66172;48.526;8.078;2023-10-19T02:49:13;8.25;;;2.70;;
77191;SDS011;66172;48.526;8.078;2023-10-19T02:51:41;7.88;;;2.75;;
77191;SDS011;66172;48.526;8.078;2023-10-19T02:54:11;7.25;;;2.88;;
77191;SDS011;66172;48.526;8.078;2023-10-19T02:56:51;6.40;;;2.60;;
77191;SDS011;66172;48.526;8.078;2023-10-19T02:59:19;7.73;;;2.33;;
77191;SDS011;66172;48.526;8.078;2023-10-19T03:01:52;7.18;;;2.53;;
77191;SDS011;66172;48.526;8.078;2023-10-19T03:04:27;7.80;;;2.22;;
77191;SDS011;66172;48.526;8.078;2023-10-19T03:06:56;8.50;;;2.55;;
77191;SDS011;66172;48.526;8.078;2023-10-19T03:09:22;6.32;;;2.70;;
77191;SDS011;66172;48.526;8.078;2023-10-19T03:11:54;5.63;;;2.30;;
77191;SDS011;66172;48.526;8.078;2023-10-19T03:14:27;6.88;;;2.38;;
77191;SDS011;66172;48.526;8.078;2023-10-19T03:16:54;7.28;;;3.00;;
77191;SDS011;66172;48.526;8.078;2023-10-19T03:19:23;9.18;;;2.92;;
77191;SDS011;66172;48.526;8.078;2023-10-19T03:21:52;8.43;;;2.75;;
77191;SDS011;66172;48.526;8.078;2023-10-19T03:24:18;5.70;;;2.63;;
77191;SDS011;66172;48.526;8.078;2023-10-19T03:27:12;8.02;;;3.13;;
77191;SDS011;66172;48.526;8.078;2023-10-19T03:29:57;8.18;;;2.75;;
77191;SDS011;66172;48.526;8.078;2023-10-19T03:32:25;6.13;;;2.47;;
77191;SDS011;66172;48.526;8.078;2023-10-19T03:34:57;7.43;;;2.15;;
77191;SDS011;66172;48.526;8.078;2023-10-19T03:37:25;6.80;;;2.37;;
77191;SDS011;66172;48.526;8.078;2023-10-19T03:39:55;7.65;;;2.90;;
77191;SDS011;66172;48.526;8.078;2023-10-19T03:42:21;5.85;;;2.42;;
77191;SDS011;66172;48.526;8.078;2023-10-19T03:44:51;6.57;;;2.78;;
77191;SDS011;66172;48.526;8.078;2023-10-19T03:47:20;8.13;;;2.95;;
77191;SDS011;66172;48.526;8.078;2023-10-19T03:49:51;5.40;;;2.20;;
77191;SDS011;66172;48.526;8.078;2023-10-19T03:52:17;7.38;;;2.30;;
77191;SDS011;66172;48.526;8.078;2023-10-19T03:54:43;7.15;;;2.30;;
77191;SDS011;66172;48.526;8.078;2023-10-19T03:57:10;6.68;;;2.45;;
77191;SDS011;66172;48.526;8.078;2023-10-19T03:59:37;7.17;;;2.37;;
77191;SDS011;66172;48.526;8.078;2023-10-19T04:02:04;6.75;;;2.30;;
77191;SDS011;66172;48.526;8.078;2023-10-19T04:04:36;6.28;;;2.38;;
77191;SDS011;66172;48.526;8.078;2023-10-19T04:07:05;7.90;;;3.03;;
77191;SDS011;66172;48.526;8.078;2023-10-19T04:09:45;7.18;;;2.97;;
77191;SDS011;66172;48.526;8.078;2023-10-19T04:12:35;8.13;;;2.40;;
77191;SDS011;66172;48.526;8.078;2023-10-19T04:15:03;6.55;;;2.42;;
77191;SDS011;66172;48.526;8.078;2023-10-19T04:17:42;7.18;;;2.72;;
77191;SDS011;66172;48.526;8.078;2023-10-19T04:20:10;7.57;;;2.30;;
77191;SDS011;66172;48.526;8.078;2023-10-19T04:22:46;8.57;;;2.95;;
77191;SDS011;66172;48.526;8.078;2023-10-19T04:25:14;8.47;;;2.53;;
77191;SDS011;66172;48.526;8.078;2023-10-19T04:27:44;7.20;;;2.42;;
77191;SDS011;66172;48.526;8.078;2023-10-19T04:30:11;8.63;;;2.53;;
77191;SDS011;66172;48.526;8.078;2023-10-19T04:32:42;6.88;;;2.38;;
77191;SDS011;66172;48.526;8.078;2023-10-19T04:35:09;6.65;;;2.40;;
77191;SDS011;66172;48.526;8.078;2023-10-19T04:37:35;7.70;;;2.47;;
77191;SDS011;66172;48.526;8.078;2023-10-19T04:40:01;7.13;;;2.50;;
77191;SDS011;66172;48.526;8.078;2023-10-19T04:42:28;7.50;;;2.22;;
77191;SDS011;66172;48.526;8.078;2023-10-19T04:44:54;6.80;;;2.50;;
77191;SDS011;66172;48.526;8.078;2023-10-19T04:47:20;8.52;;;2.53;;
77191;SDS011;66172;48.526;8.078;2023-10-19T04:49:47;7.50;;;2.60;;
77191;SDS011;66172;48.526;8.078;2023-10-19T04:52:13;7.68;;;2.75;;
77191;SDS011;66172;48.526;8.078;2023-10-19T04:54:39;8.05;;;2.70;;
77191;SDS011;66172;48.526;8.078;2023-10-19T04:57:05;5.85;;;2.60;;
77191;SDS011;66172;48.526;8.078;2023-10-19T04:59:31;8.50;;;3.00;;
77191;SDS011;66172;48.526;8.078;2023-10-19T05:01:59;8.00;;;2.70;;
77191;SDS011;66172;48.526;8.078;2023-10-19T05:04:28;7.05;;;2.85;;
77191;SDS011;66172;48.526;8.078;2023-10-19T05:06:55;8.45;;;2.85;;
77191;SDS011;66172;48.526;8.078;2023-10-19T05:09:21;6.70;;;2.73;;
77191;SDS011;66172;48.526;8.078;2023-10-19T05:11:47;5.65;;;2.17;;
77191;SDS011;66172;48.526;8.078;2023-10-19T05:14:13;5.18;;;2.20;;
77191;SDS011;66172;48.526;8.078;2023-10-19T05:16:39;7.10;;;2.83;;
77191;SDS011;66172;48.526;8.078;2023-10-19T05:19:06;7.53;;;2.90;;
77191;SDS011;66172;48.526;8.078;2023-10-19T05:21:32;8.20;;;2.80;;
77191;SDS011;66172;48.526;8.078;2023-10-19T05:23:59;7.13;;;2.60;;
77191;SDS011;66172;48.526;8.078;2023-10-19T05:26:26;6.93;;;2.42;;
77191;SDS011;66172;48.526;8.078;2023-10-19T05:28:52;6.20;;;2.60;;
77191;SDS011;66172;48.526;8.078;2023-10-19T05:31:20;6.72;;;2.63;;
77191;SDS011;66172;48.526;8.078;2023-10-19T05:33:46;6.27;;;2.53;;
77191;SDS011;66172;48.526;8.078;2023-10-19T05:36:14;7.55;;;2.60;;
77191;SDS011;66172;48.526;8.078;2023-10-19T05:38:40;6.07;;;2.22;;
77191;SDS011;66172;48.526;8.078;2023-10-19T05:41:06;6.65;;;2.33;;
77191;SDS011;66172;48.526;8.078;2023-10-19T05:43:33;5.88;;;2.50;;
77191;SDS011;66172;48.526;8.078;2023-10-19T05:46:00;7.10;;;2.00;;
77191;SDS011;66172;48.526;8.078;2023-10-19T05:48:26;6.03;;;2.30;;
77191;SDS011;66172;48.526;8.078;2023-10-19T05:50:52;5.68;;;2.17;;
77191;SDS011;66172;48.526;8.078;2023-10-19T05:53:18;8.75;;;2.45;;
77191;SDS011;66172;48.526;8.078;2023-10-19T05:55:44;6.20;;;2.30;;
77191;SDS011;66172;48.526;8.078;2023-10-19T05:58:11;6.50;;;2.70;;
77191;SDS011;66172;48.526;8.078;2023-10-19T06:00:37;5.68;;;2.40;;
77191;SDS011;66172;48.526;8.078;2023-10-19T06:03:03;7.72;;;2.72;;
77191;SDS011;66172;48.526;8.078;2023-10-19T06:05:30;8.47;;;2.60;;
77191;SDS011;66172;48.526;8.078;2023-10-19T06:07:56;7.82;;;3.35;;
77191;SDS011;66172;48.526;8.078;2023-10-19T06:10:27;6.95;;;2.90;;
77191;SDS011;66172;48.526;8.078;2023-10-19T06:12:54;7.90;;;3.72;;
77191;SDS011;66172;48.526;8.078;2023-10-19T06:15:21;8.48;;;3.30;;
77191;SDS011;66172;48.526;8.078;2023-10-19T06:17:50;7.23;;;3.10;;
77191;SDS011;66172;48.526;8.078;2023-10-19T06:20:16;6.60;;;3.00;;
77191;SDS011;66172;48.526;8.078;2023-10-19T06:22:46;8.13;;;3.75;;
77191;SDS011;66172;48.526;8.078;2023-10-19T06:25:24;7.93;;;3.22;;
77191;SDS011;66172;48.526;8.078;2023-10-19T06:27:50;9.50;;;3.70;;
77191;SDS011;66172;48.526;8.078;2023-10-19T06:30:18;6.53;;;3.20;;
77191;SDS011;66172;48.526;8.078;2023-10-19T06:32:46;6.93;;;2.85;;
77191;SDS011;66172;48.526;8.078;2023-10-19T06:35:26;9.57;;;3.47;;
77191;SDS011;66172;48.526;8.078;2023-10-19T06:37:53;8.63;;;3.28;;
77191;SDS011;66172;48.526;8.078;2023-10-19T06:40:23;5.90;;;2.50;;
77191;SDS011;66172;48.526;8.078;2023-10-19T06:42:49;9.07;;;2.70;;
77191;SDS011;66172;48.526;8.078;2023-10-19T06:45:15;7.68;;;3.28;;
77191;SDS011;66172;48.526;8.078;2023-10-19T06:47:43;7.60;;;3.20;;
77191;SDS011;66172;48.526;8.078;2023-10-19T06:50:10;9.00;;;2.90;;
77191;SDS011;66172;48.526;8.078;2023-10-19T06:52:38;8.13;;;2.75;;
77191;SDS011;66172;48.526;8.078;2023-10-19T06:55:05;6.80;;;2.63;;
77191;SDS011;66172;48.526;8.078;2023-10-19T06:57:39;6.70;;;2.88;;
77191;SDS011;66172;48.526;8.078;2023-10-19T07:00:11;9.75;;;3.35;;
77191;SDS011;66172;48.526;8.078;2023-10-19T07:02:48;6.65;;;2.97;;
77191;SDS011;66172;48.526;8.078;2023-10-19T07:05:16;6.95;;;2.85;;
77191;SDS011;66172;48.526;8.078;2023-10-19T07:08:01;7.33;;;2.77;;
77191;SDS011;66172;48.526;8.078;2023-10-19T07:10:28;8.63;;;2.70;;
77191;SDS011;66172;48.526;8.078;2023-10-19T07:12:54;8.13;;;2.80;;
77191;SDS011;66172;48.526;8.078;2023-10-19T07:15:22;9.77;;;2.95;;
77191;SDS011;66172;48.526;8.078;2023-10-19T07:17:49;6.13;;;2.70;;
77191;SDS011;66172;48.526;8.078;2023-10-19T07:20:18;8.67;;;2.67;;
77191;SDS011;66172;48.526;8.078;2023-10-19T07:23:02;8.20;;;3.70;;
77191;SDS011;66172;48.526;8.078;2023-10-19T07:25:38;6.72;;;3.45;;
77191;SDS011;66172;48.526;8.078;2023-10-19T07:28:09;5.40;;;2.17;;
77191;SDS011;66172;48.526;8.078;2023-10-19T07:30:35;7.18;;;2.17;;
77191;SDS011;66172;48.526;8.078;2023-10-19T07:33:02;9.30;;;2.57;;
77191;SDS011;66172;48.526;8.078;2023-10-19T07:35:33;10.63;;;2.33;;
77191;SDS011;66172;48.526;8.078;2023-10-19T07:38:00;7.15;;;2.38;;
77191;SDS011;66172;48.526;8.078;2023-10-19T07:40:27;8.20;;;2.55;;
77191;SDS011;66172;48.526;8.078;2023-10-19T07:42:53;8.55;;;2.60;;
77191;SDS011;66172;48.526;8.078;2023-10-19T07:45:20;6.40;;;2.50;;
77191;SDS011;66172;48.526;8.078;2023-10-19T07:47:47;6.47;;;2.30;;
77191;SDS011;66172;48.526;8.078;2023-10-19T07:50:13;7.75;;;2.58;;
77191;SDS011;66172;48.526;8.078;2023-10-19T07:52:43;7.03;;;2.33;;
77191;SDS011;66172;48.526;8.078;2023-10-19T07:55:15;6.65;;;2.30;;
77191;SDS011;66172;48.526;8.078;2023-10-19T07:57:42;9.87;;;2.67;;
77191;SDS011;66172;48.526;8.078;2023-10-19T08:00:08;5.78;;;2.20;;
77191;SDS011;66172;48.526;8.078;2023-10-19T08:02:38;5.85;;;2.00;;
77191;SDS011;66172;48.526;8.078;2023-10-19T08:05:06;6.28;;;1.95;;
77191;SDS011;66172;48.526;8.078;2023-10-19T08:07:32;4.95;;;2.00;;
77191;SDS011;66172;48.526;8.078;2023-10-19T08:10:00;6.60;;;1.90;;
77191;SDS011;66172;48.526;8.078;2023-10-19T08:12:27;5.40;;;1.83;;
77191;SDS011;66172;48.526;8.078;2023-10-19T08:14:53;5.55;;;1.60;;
77191;SDS011;66172;48.526;8.078;2023-10-19T08:17:21;6.40;;;2.10;;
77191;SDS011;66172;48.526;8.078;2023-10-19T08:19:47;6.82;;;2.20;;
77191;SDS011;66172;48.526;8.078;2023-10-19T08:22:13;5.70;;;1.83;;
77191;SDS011;66172;48.526;8.078;2023-10-19T08:24:40;4.90;;;1.80;;
77191;SDS011;66172;48.526;8.078;2023-10-19T08:27:09;5.90;;;2.30;;
77191;SDS011;66172;48.526;8.078;2023-10-19T08:29:36;10.25;;;3.10;;
77191;SDS011;66172;48.526;8.078;2023-10-19T08:32:03;6.53;;;2.50;;
77191;SDS011;66172;48.526;8.078;2023-10-19T08:34:29;6.90;;;2.65;;
77191;SDS011;66172;48.526;8.078;2023-10-19T08:36:57;6.53;;;2.80;;
77191;SDS011;66172;48.526;8.078;2023-10-19T08:39:23;7.40;;;2.50;;
77191;SDS011;66172;48.526;8.078;2023-10-19T08:41:50;7.43;;;2.50;;
77191;SDS011;66172;48.526;8.078;2023-10-19T08:44:19;8.07;;;2.50;;
77191;SDS011;66172;48.526;8.078;2023-10-19T08:46:45;7.65;;;2.55;;
77191;SDS011;66172;48.526;8.078;2023-10-19T08:49:13;7.72;;;2.60;;
77191;SDS011;66172;48.526;8.078;2023-10-19T08:51:43;11.55;;;3.72;;
77191;SDS011;66172;48.526;8.078;2023-10-19T08:54:11;7.82;;;3.63;;
77191;SDS011;66172;48.526;8.078;2023-10-19T08:56:39;8.60;;;2.83;;
77191;SDS011;66172;48.526;8.078;2023-10-19T08:59:10;7.70;;;3.33;;
77191;SDS011;66172;48.526;8.078;2023-10-19T09:01:36;10.75;;;6.07;;
77191;SDS011;66172;48.526;8.078;2023-10-19T09:04:03;11.00;;;6.13;;
77191;SDS011;66172;48.526;8.078;2023-10-19T09:06:34;22.80;;;11.30;;
77191;SDS011;66172;48.526;8.078;2023-10-19T09:09:07;15.57;;;7.80;;
77191;SDS011;66172;48.526;8.078;2023-10-19T09:11:35;14.02;;;7.20;;
77191;SDS011;66172;48.526;8.078;2023-10-19T09:14:01;14.75;;;6.88;;
77191;SDS011;66172;48.526;8.078;2023-10-19T09:16:29;12.25;;;6.15;;
77191;SDS011;66172;48.526;8.078;2023-10-19T09:18:56;11.25;;;6.05;;
77191;SDS011;66172;48.526;8.078;2023-10-19T09:21:22;12.43;;;6.00;;
77191;SDS011;66172;48.526;8.078;2023-10-19T09:23:51;12.75;;;6.55;;
77191;SDS011;66172;48.526;8.078;2023-10-19T09:26:18;10.13;;;4.40;;
77191;SDS011;66172;48.526;8.078;2023-10-19T09:28:49;8.40;;;3.15;;
77191;SDS011;66172;48.526;8.078;2023-10-19T09:31:16;7.40;;;2.38;;
77191;SDS011;66172;48.526;8.078;2023-10-19T09:33:44;7.30;;;2.10;;
77191;SDS011;66172;48.526;8.078;2023-10-19T09:36:12;8.55;;;2.40;;
77191;SDS011;66172;48.526;8.078;2023-10-19T09:38:45;7.50;;;2.40;;
77191;SDS011;66172;48.526;8.078;2023-10-19T09:41:19;7.20;;;2.17;;
77191;SDS011;66172;48.526;8.078;2023-10-19T09:43:47;5.72;;;1.40;;
77191;SDS011;66172;48.526;8.078;2023-10-19T09:46:23;6.63;;;1.73;;
77191;SDS011;66172;48.526;8.078;2023-10-19T09:48:52;4.85;;;1.45;;
77191;SDS011;66172;48.526;8.078;2023-10-19T09:51:18;3.92;;;1.20;;
77191;SDS011;66172;48.526;8.078;2023-10-19T09:54:04;4.75;;;1.25;;
77191;SDS011;66172;48.526;8.078;2023-10-19T09:56:38;3.80;;;1.20;;
77191;SDS011;66172;48.526;8.078;2023-10-19T09:59:23;3.40;;;0.80;;
77191;SDS011;66172;48.526;8.078;2023-10-19T10:02:03;3.78;;;0.82;;
77191;SDS011;66172;48.526;8.078;2023-10-19T10:04:32;5.28;;;1.50;;
77191;SDS011;66172;48.526;8.078;2023-10-19T10:06:59;9.68;;;2.00;;
77191;SDS011;66172;48.526;8.078;2023-10-19T10:09:25;6.03;;;2.03;;
77191;SDS011;66172;48.526;8.078;2023-10-19T10:11:52;5.82;;;1.65;;
77191;SDS011;66172;48.526;8.078;2023-10-19T10:14:22;8.48;;;2.50;;
77191;SDS011;66172;48.526;8.078;2023-10-19T10:16:59;4.93;;;1.38;;
77191;SDS011;66172;48.526;8.078;2023-10-19T10:19:28;4.72;;;1.10;;
77191;SDS011;66172;48.526;8.078;2023-10-19T10:22:04;5.93;;;1.50;;
77191;SDS011;66172;48.526;8.078;2023-10-19T10:24:43;11.90;;;1.95;;
77191;SDS011;66172;48.526;8.078;2023-10-19T10:27:10;6.50;;;2.47;;
77191;SDS011;66172;48.526;8.078;2023-10-19T10:29:58;6.45;;;2.78;;
77191;SDS011;66172;48.526;8.078;2023-10-19T10:35:09;6.40;;;1.00;;
77191;SDS011;66172;48.526;8.078;2023-10-19T10:37:36;5.03;;;1.45;;
77191;SDS011;66172;48.526;8.078;2023-10-19T10:40:02;3.70;;;0.90;;
77191;SDS011;66172;48.526;8.078;2023-10-19T10:42:30;4.30;;;1.10;;
77191;SDS011;66172;48.526;8.078;2023-10-19T10:44:55;3.60;;;0.80;;
77191;SDS011;66172;48.526;8.078;2023-10-19T10:47:22;3.65;;;0.85;;
77191;SDS011;66172;48.526;8.078;2023-10-19T10:49:50;5.45;;;0.85;;
77191;SDS011;66172;48.526;8.078;2023-10-19T10:52:34;4.28;;;1.00;;
77191;SDS011;66172;48.526;8.078;2023-10-19T10:55:08;4.13;;;1.40;;
77191;SDS011;66172;48.526;8.078;2023-10-19T10:57:39;4.07;;;1.10;;
77191;SDS011;66172;48.526;8.078;2023-10-19T11:00:13;4.40;;;0.98;;
77191;SDS011;66172;48.526;8.078;2023-10-19T11:02:45;4.38;;;0.90;;
77191;SDS011;66172;48.526;8.078;2023-10-19T11:05:25;3.97;;;0.70;;
77191;SDS011;66172;48.526;8.078;2023-10-19T11:08:10;3.28;;;0.73;;
77191;SDS011;66172;48.526;8.078;2023-10-19T11:10:40;4.67;;;0.80;;
77191;SDS011;66172;48.526;8.078;2023-10-19T11:13:09;3.05;;;0.50;;
77191;SDS011;66172;48.526;8.078;2023-10-19T11:15:37;4.40;;;0.90;;
77191;SDS011;66172;48.526;8.078;2023-10-19T11:18:07;3.05;;;0.65;;
77191;SDS011;66172;48.526;8.078;2023-10-19T11:20:33;6.13;;;0.90;;
77191;SDS011;66172;48.526;8.078;2023-10-19T11:22:59;3.87;;;0.70;;
77191;SDS011;66172;48.526;8.078;2023-10-19T11:25:29;4.32;;;0.70;;
77191;SDS011;66172;48.526;8.078;2023-10-19T11:27:57;3.83;;;0.85;;
77191;SDS011;66172;48.526;8.078;2023-10-19T11:30:28;4.68;;;0.88;;
77191;SDS011;66172;48.526;8.078;2023-10-19T11:32:56;5.18;;;1.02;;
77191;SDS011;66172;48.526;8.078;2023-10-19T11:35:24;3.20;;;0.60;;
77191;SDS011;66172;48.526;8.078;2023-10-19T11:37:52;3.92;;;0.70;;
77191;SDS011;66172;48.526;8.078;2023-10-19T11:40:20;4.10;;;0.60;;
77191;SDS011;66172;48.526;8.078;2023-10-19T11:42:47;3.65;;;0.70;;
77191;SDS011;66172;48.526;8.078;2023-10-19T11:45:14;2.80;;;0.65;;
77191;SDS011;66172;48.526;8.078;2023-10-19T11:47:39;3.27;;;0.60;;
77191;SDS011;66172;48.526;8.078;2023-10-19T11:50:06;3.30;;;0.60;;
77191;SDS011;66172;48.526;8.078;2023-10-19T11:52:32;3.58;;;0.80;;
77191;SDS011;66172;48.526;8.078;2023-10-19T11:54:59;4.28;;;0.80;;
77191;SDS011;66172;48.526;8.078;2023-10-19T11:57:24;4.47;;;0.88;;
77191;SDS011;66172;48.526;8.078;2023-10-19T11:59:51;4.93;;;1.20;;
77191;SDS011;66172;48.526;8.078;2023-10-19T12:02:20;3.75;;;0.98;;
77191;SDS011;66172;48.526;8.078;2023-10-19T12:04:46;3.67;;;0.70;;
77191;SDS011;66172;48.526;8.078;2023-10-19T12:07:12;3.08;;;0.70;;
77191;SDS011;66172;48.526;8.078;2023-10-19T12:09:38;3.43;;;0.70;;
77191;SDS011;66172;48.526;8.078;2023-10-19T12:12:07;3.00;;;0.50;;
77191;SDS011;66172;48.526;8.078;2023-10-19T12:14:35;3.22;;;0.60;;
77191;SDS011;66172;48.526;8.078;2023-10-19T12:17:01;4.47;;;0.88;;
77191;SDS011;66172;48.526;8.078;2023-10-19T12:19:30;4.27;;;0.60;;
77191;SDS011;66172;48.526;8.078;2023-10-19T12:21:57;4.13;;;0.75;;
77191;SDS011;66172;48.526;8.078;2023-10-19T12:24:23;4.07;;;0.82;;
77191;SDS011;66172;48.526;8.078;2023-10-19T12:26:53;3.53;;;0.93;;
77191;SDS011;66172;48.526;8.078;2023-10-19T12:29:19;4.85;;;1.17;;
77191;SDS011;66172;48.526;8.078;2023-10-19T12:31:47;5.13;;;0.80;;
77191;SDS011;66172;48.526;8.078;2023-10-19T12:34:13;4.38;;;0.85;;
77191;SDS011;66172;48.526;8.078;2023-10-19T12:36:39;3.47;;;0.85;;
77191;SDS011;66172;48.526;8.078;2023-10-19T12:39:06;4.97;;;1.00;;
77191;SDS011;66172;48.526;8.078;2023-10-19T12:41:33;4.97;;;0.70;;
77191;SDS011;66172;48.526;8.078;2023-10-19T12:43:59;5.85;;;1.00;;
77191;SDS011;66172;48.526;8.078;2023-10-19T12:46:33;5.70;;;1.30;;
77191;SDS011;66172;48.526;8.078;2023-10-19T12:49:05;7.25;;;0.90;;
77191;SDS011;66172;48.526;8.078;2023-10-19T12:51:34;6.00;;;0.85;;
77191;SDS011;66172;48.526;8.078;2023-10-19T12:54:00;4.33;;;0.90;;
77191;SDS011;66172;48.526;8.078;2023-10-19T12:56:29;4.57;;;1.20;;
77191;SDS011;66172;48.526;8.078;2023-10-19T12:58:54;4.15;;;1.00;;
77191;SDS011;66172;48.526;8.078;2023-10-19T13:01:20;5.05;;;0.98;;
77191;SDS011;66172;48.526;8.078;2023-10-19T13:03:47;4.60;;;0.93;;
77191;SDS011;66172;48.526;8.078;2023-10-19T13:06:15;4.38;;;1.20;;
77191;SDS011;66172;48.526;8.078;2023-10-19T13:08:41;4.25;;;0.90;;
77191;SDS011;66172;48.526;8.078;2023-10-19T13:11:07;4.13;;;0.80;;
77191;SDS011;66172;48.526;8.078;2023-10-19T13:13:35;3.60;;;0.90;;
77191;SDS011;66172;48.526;8.078;2023-10-19T13:16:01;5.60;;;0.93;;
77191;SDS011;66172;48.526;8.078;2023-10-19T13:18:31;7.50;;;1.05;;
77191;SDS011;66172;48.526;8.078;2023-10-19T13:20:59;4.38;;;0.95;;
77191;SDS011;66172;48.526;8.078;2023-10-19T13:23:34;5.38;;;0.80;;
77191;SDS011;66172;48.526;8.078;2023-10-19T13:26:01;6.32;;;1.20;;
77191;SDS011;66172;48.526;8.078;2023-10-19T13:28:33;5.53;;;1.60;;
77191;SDS011;66172;48.526;8.078;2023-10-19T13:31:03;5.35;;;1.20;;
77191;SDS011;66172;48.526;8.078;2023-10-19T13:33:29;5.32;;;1.00;;
77191;SDS011;66172;48.526;8.078;2023-10-19T13:35:55;4.10;;;0.80;;
77191;SDS011;66172;48.526;8.078;2023-10-19T13:38:21;4.10;;;1.10;;
77191;SDS011;66172;48.526;8.078;2023-10-19T13:40:47;3.53;;;0.80;;
77191;SDS011;66172;48.526;8.078;2023-10-19T13:43:15;4.18;;;0.85;;
77191;SDS011;66172;48.526;8.078;2023-10-19T13:45:43;5.75;;;0.95;;
77191;SDS011;66172;48.526;8.078;2023-10-19T13:48:10;3.58;;;0.70;;
77191;SDS011;66172;48.526;8.078;2023-10-19T13:50:41;3.57;;;0.97;;
77191;SDS011;66172;48.526;8.078;2023-10-19T13:53:09;4.78;;;0.90;;
77191;SDS011;66172;48.526;8.078;2023-10-19T13:55:35;3.70;;;1.13;;
77191;SDS011;66172;48.526;8.078;2023-10-19T13:58:04;5.32;;;1.17;;
77191;SDS011;66172;48.526;8.078;2023-10-19T14:00:32;4.25;;;1.08;;
77191;SDS011;66172;48.526;8.078;2023-10-19T14:03:01;3.77;;;1.10;;
77191;SDS011;66172;48.526;8.078;2023-10-19T14:05:35;4.78;;;0.90;;
77191;SDS011;66172;48.526;8.078;2023-10-19T14:08:05;4.43;;;0.98;;
77191;SDS011;66172;48.526;8.078;2023-10-19T14:10:32;3.80;;;0.82;;
77191;SDS011;66172;48.526;8.078;2023-10-19T14:12:59;3.97;;;1.20;;
77191;SDS011;66172;48.526;8.078;2023-10-19T14:15:25;4.47;;;1.00;;
77191;SDS011;66172;48.526;8.078;2023-10-19T14:17:55;4.40;;;1.20;;
77191;SDS011;66172;48.526;8.078;2023-10-19T14:20:23;4.15;;;1.08;;
77191;SDS011;66172;48.526;8.078;2023-10-19T14:22:50;3.90;;;1.10;;
77191;SDS011;66172;48.526;8.078;2023-10-19T14:25:19;4.30;;;1.20;;
77191;SDS011;66172;48.526;8.078;2023-10-19T14:27:48;7.17;;;1.40;;
77191;SDS011;66172;48.526;8.078;2023-10-19T14:30:17;4.43;;;1.17;;
77191;SDS011;66172;48.526;8.078;2023-10-19T14:32:47;5.38;;;1.45;;
77191;SDS011;66172;48.526;8.078;2023-10-19T14:35:15;4.10;;;0.98;;
77191;SDS011;66172;48.526;8.078;2023-10-19T14:37:43;3.40;;;0.80;;
77191;SDS011;66172;48.526;8.078;2023-10-19T14:40:10;4.83;;;1.10;;
77191;SDS011;66172;48.526;8.078;2023-10-19T14:42:41;4.85;;;0.80;;
77191;SDS011;66172;48.526;8.078;2023-10-19T14:45:09;4.25;;;1.30;;
77191;SDS011;66172;48.526;8.078;2023-10-19T14:47:37;4.57;;;1.30;;
77191;SDS011;66172;48.526;8.078;2023-10-19T14:50:03;5.22;;;1.40;;
77191;SDS011;66172;48.526;8.078;2023-10-19T14:52:30;4.67;;;1.40;;
77191;SDS011;66172;48.526;8.078;2023-10-19T14:54:56;6.55;;;1.50;;
77191;SDS011;66172;48.526;8.078;2023-10-19T14:57:22;4.43;;;1.25;;
77191;SDS011;66172;48.526;8.078;2023-10-19T14:59:48;5.53;;;1.17;;